Time;durP1;ratioP1;P1;durP2;ratioP2;P2;SDS_P1;SDS_P2;PMS_P1;PMS_P2;Temp;Humidity;BMP_temperature;BMP_pressure;BME280_temperature;BME280_humidity;BME280_pressure;Samples;Min_cycle;Max_cycle;Signal;HPM_P1;HPM_P2
2023/04/17 00:01:07;;;;;;;4.78;4.00;;;;;;;9.16;85.01;97024.13;5058885;28;20049;-89
2023/04/17 00:03:36;;;;;;;6.13;5.43;;;;;;;9.17;84.89;97028.38;5058755;28;20041;-90
2023/04/17 00:06:05;;;;;;;6.40;5.55;;;;;;;9.13;84.02;97021.88;5058966;28;20036;-90
2023/04/17 00:08:34;;;;;;;5.45;4.75;;;;;;;9.10;84.02;97030.00;5058814;28;20037;-89
2023/04/17 00:11:02;;;;;;;6.47;5.65;;;;;;;9.08;84.22;97025.75;5058730;28;20101;-89
2023/04/17 00:13:37;;;;;;;6.03;5.18;;;;;;;9.11;84.75;97023.81;5058569;28;20044;-87
2023/04/17 00:16:05;;;;;;;8.20;6.03;;;;;;;9.11;84.48;97027.22;5058735;28;20041;-90
2023/04/17 00:18:33;;;;;;;6.57;5.50;;;;;;;9.12;84.68;97020.22;5058529;28;20048;-89
2023/04/17 00:21:00;;;;;;;6.18;5.18;;;;;;;9.13;84.98;97022.69;5058790;28;20104;-88
2023/04/17 00:23:32;;;;;;;6.50;5.30;;;;;;;9.14;84.72;97018.28;5058377;28;20040;-90
2023/04/17 04:40:20;;;;;;;15.35;11.18;;;;;;;8.61;83.67;97039.31;5705115;23;20076;-79
2023/04/17 04:42:48;;;;;;;13.35;9.65;;;;;;;8.60;84.12;97032.50;5017267;28;20042;-78
2023/04/17 04:45:16;;;;;;;15.80;9.77;;;;;;;8.60;84.43;97027.31;5012881;28;20052;-78
2023/04/17 04:47:43;;;;;;;13.70;10.55;;;;;;;8.59;83.74;97030.91;5010269;28;20068;-78
2023/04/17 04:50:11;;;;;;;16.00;10.13;;;;;;;8.57;83.81;97038.03;4995559;28;20074;-78
2023/04/17 04:52:39;;;;;;;10.90;8.63;;;;;;;8.59;84.54;97033.50;4974230;28;20055;-78
2023/04/17 04:55:07;;;;;;;14.68;10.43;;;;;;;8.62;84.57;97035.78;4989624;28;20508;-80
2023/04/17 04:57:36;;;;;;;10.70;9.00;;;;;;;8.64;84.64;97036.44;4989480;28;20100;-79
2023/04/17 05:00:07;;;;;;;10.23;8.32;;;;;;;8.71;85.35;97041.00;4996881;28;20060;-78
2023/04/17 05:02:35;;;;;;;10.73;9.55;;;;;;;8.76;85.03;97041.31;4990613;28;20802;-79
2023/04/17 05:05:04;;;;;;;12.50;9.00;;;;;;;8.73;84.00;97039.88;4991692;28;20046;-79
2023/04/17 05:07:31;;;;;;;10.90;8.70;;;;;;;8.75;84.39;97050.13;4996357;28;20046;-79
2023/04/17 05:09:59;;;;;;;14.38;8.95;;;;;;;8.76;84.65;97055.13;4992502;28;20390;-79
2023/04/17 05:12:26;;;;;;;15.88;9.32;;;;;;;8.78;84.01;97053.19;4984870;28;20046;-79
2023/04/17 05:14:55;;;;;;;12.88;9.65;;;;;;;8.78;83.72;97057.59;4989199;28;20051;-79
2023/04/17 05:17:23;;;;;;;13.38;9.95;;;;;;;8.77;83.48;97053.38;4991809;28;20058;-79
2023/04/17 05:19:51;;;;;;;10.45;8.50;;;;;;;8.76;83.32;97056.94;4993556;28;20050;-80
2023/04/17 05:22:18;;;;;;;12.07;9.05;;;;;;;8.75;83.13;97055.31;4992942;28;20413;-78
2023/04/17 05:24:46;;;;;;;12.27;9.57;;;;;;;8.74;82.99;97048.47;5006036;28;20050;-79
2023/04/17 05:27:13;;;;;;;11.88;9.52;;;;;;;8.75;82.72;97055.31;4993604;28;20058;-79
2023/04/17 05:29:41;;;;;;;12.43;9.85;;;;;;;8.74;82.51;97064.88;4994249;28;20054;-80
2023/04/17 05:32:10;;;;;;;11.45;8.82;;;;;;;8.72;82.74;97066.03;4993544;28;20136;-80
2023/04/17 05:34:38;;;;;;;10.02;8.63;;;;;;;8.72;82.89;97066.03;4993451;28;20054;-79
2023/04/17 05:37:06;;;;;;;12.85;9.23;;;;;;;8.73;83.06;97060.66;4993755;28;20133;-79
2023/04/17 05:39:34;;;;;;;11.25;8.88;;;;;;;8.73;82.79;97065.06;4993092;28;20145;-79
2023/04/17 05:42:02;;;;;;;11.63;9.27;;;;;;;8.73;82.55;97065.06;4993394;28;20057;-77
2023/04/17 05:44:30;;;;;;;11.65;9.10;;;;;;;8.73;82.67;97067.66;4993257;28;20047;-79
2023/04/17 05:46:59;;;;;;;11.98;9.07;;;;;;;8.73;82.48;97065.88;4997512;28;20061;-80
2023/04/17 05:49:28;;;;;;;12.57;9.38;;;;;;;8.73;82.41;97062.47;4997621;28;20081;-79
2023/04/17 05:51:56;;;;;;;12.65;9.70;;;;;;;8.71;82.61;97067.00;4996882;28;20061;-80
2023/04/17 05:54:24;;;;;;;10.95;9.00;;;;;;;8.71;82.88;97064.41;4993963;28;20059;-79
2023/04/17 05:56:51;;;;;;;12.05;9.07;;;;;;;8.73;82.88;97070.28;4987123;28;20056;-79
2023/04/17 05:59:19;;;;;;;11.00;9.10;;;;;;;8.74;82.87;97071.88;4995578;28;20050;-79
2023/04/17 06:01:47;;;;;;;10.38;8.45;;;;;;;8.74;82.92;97064.06;4996907;28;20050;-79
2023/04/17 06:04:15;;;;;;;9.45;7.75;;;;;;;8.75;82.69;97063.13;4996549;28;20467;-79
2023/04/17 06:06:46;;;;;;;10.55;8.20;;;;;;;8.78;82.73;97070.59;4996749;28;20050;-79
2023/04/17 06:09:14;;;;;;;11.70;8.82;;;;;;;8.79;82.18;97073.03;4995753;28;20046;-79
2023/04/17 06:11:42;;;;;;;10.32;8.30;;;;;;;8.79;81.82;97072.22;4988587;28;20058;-79
2023/04/17 06:14:10;;;;;;;10.45;7.82;;;;;;;8.80;82.04;97073.84;4988649;28;20042;-78
2023/04/17 06:16:37;;;;;;;9.70;7.97;;;;;;;8.81;81.95;97076.31;4995627;28;20418;-78
2023/04/17 06:19:05;;;;;;;9.63;7.88;;;;;;;8.83;81.58;97083.94;4995631;28;20477;-78
2023/04/17 06:21:32;;;;;;;11.38;9.18;;;;;;;8.83;81.46;97081.31;4990999;28;20073;-78
2023/04/17 06:24:01;;;;;;;13.07;9.88;;;;;;;8.84;81.37;97080.38;4991108;28;20054;-78
2023/04/17 06:26:29;;;;;;;12.00;9.32;;;;;;;8.82;81.25;97084.91;4995591;28;20053;-79
2023/04/17 06:28:57;;;;;;;10.68;8.27;;;;;;;8.81;81.42;97085.88;4995673;28;20046;-78
2023/04/17 06:31:25;;;;;;;13.40;8.43;;;;;;;8.81;81.30;97091.06;4989439;28;20061;-79
2023/04/17 06:33:52;;;;;;;11.25;8.38;;;;;;;8.77;81.37;97090.59;4990488;28;20125;-79
2023/04/17 06:36:20;;;;;;;11.40;9.00;;;;;;;8.77;81.38;97089.78;4981151;28;20062;-79
2023/04/17 06:38:47;;;;;;;13.95;10.35;;;;;;;8.75;81.33;97096.94;4978772;28;20057;-79
2023/04/17 06:41:16;;;;;;;12.90;8.73;;;;;;;8.75;81.14;97091.72;4994575;28;20053;-78
2023/04/17 06:43:44;;;;;;;14.10;10.07;;;;;;;8.75;81.15;97089.13;4994796;28;20053;-77
2023/04/17 06:46:11;;;;;;;11.95;8.48;;;;;;;8.76;81.26;97093.34;4995820;28;20042;-78
2023/04/17 06:48:39;;;;;;;11.75;7.93;;;;;;;8.75;81.32;97087.34;4995771;28;20116;-78
2023/04/17 06:51:07;;;;;;;12.10;8.50;;;;;;;8.78;81.79;97096.59;4996169;28;20054;-79
2023/04/17 06:53:34;;;;;;;11.55;8.80;;;;;;;8.82;81.95;97093.53;4996901;28;20050;-79
2023/04/17 06:56:02;;;;;;;11.40;8.77;;;;;;;8.85;81.83;97098.44;4996366;28;20048;-78
2023/04/17 06:58:32;;;;;;;10.88;8.43;;;;;;;8.89;81.75;97098.09;4991943;28;20051;-79
2023/04/17 07:00:59;;;;;;;11.35;8.57;;;;;;;8.90;81.33;97099.72;4987485;28;20052;-80
2023/04/17 07:03:28;;;;;;;11.30;8.50;;;;;;;8.89;81.20;97101.50;4982185;28;20055;-79
2023/04/17 07:05:56;;;;;;;10.80;8.82;;;;;;;8.89;81.12;97104.13;4992250;28;20046;-79
2023/04/17 07:08:23;;;;;;;9.65;7.78;;;;;;;8.92;81.72;97103.81;4996468;28;20046;-79
2023/04/17 07:10:51;;;;;;;11.52;8.40;;;;;;;8.96;81.99;97099.91;4995744;28;20046;-79
2023/04/17 07:13:18;;;;;;;10.45;8.27;;;;;;;9.00;81.80;97096.00;4995630;28;20050;-79
2023/04/17 07:15:53;;;;;;;13.90;8.70;;;;;;;9.06;82.36;97102.38;4992085;28;20471;-79
2023/04/17 07:18:21;;;;;;;10.02;7.72;;;;;;;9.10;81.35;97105.47;4996841;28;20081;-79
2023/04/17 07:20:49;;;;;;;10.05;7.75;;;;;;;9.10;80.74;97105.47;4997120;28;20050;-78
2023/04/17 07:23:17;;;;;;;8.90;7.00;;;;;;;9.12;81.46;97106.09;5014716;28;20050;-79
2023/04/17 07:25:44;;;;;;;10.38;7.47;;;;;;;9.17;82.00;97106.47;5015767;28;20051;-79
2023/04/17 07:28:13;;;;;;;10.15;8.07;;;;;;;9.18;81.05;97110.69;5016294;28;20054;-80
2023/04/17 07:30:41;;;;;;;8.93;7.68;;;;;;;9.16;80.91;97105.66;5015088;28;20046;-80
2023/04/17 07:33:10;;;;;;;10.57;8.25;;;;;;;9.18;80.99;97108.91;5014972;28;20053;-79
2023/04/17 07:35:37;;;;;;;11.32;8.43;;;;;;;9.22;81.77;97106.78;5015049;28;20389;-79
2023/04/17 07:38:05;;;;;;;9.23;7.63;;;;;;;9.31;82.27;97118.03;5014451;28;20052;-79
2023/04/17 07:40:35;;;;;;;9.23;7.85;;;;;;;9.31;81.42;97113.63;5008614;28;20054;-79
2023/04/17 07:43:03;;;;;;;9.57;7.45;;;;;;;9.31;81.83;97118.84;5009479;28;20506;-79
2023/04/17 07:45:32;;;;;;;8.35;7.22;;;;;;;9.30;81.41;97127.63;5009354;28;20051;-79
2023/04/17 07:48:00;;;;;;;9.98;8.02;;;;;;;9.28;81.36;97124.38;5007628;28;20114;-79
2023/04/17 07:50:29;;;;;;;9.70;7.80;;;;;;;9.27;81.17;97125.34;4986825;28;20110;-79
2023/04/17 07:52:56;;;;;;;10.98;8.98;;;;;;;9.24;81.10;97117.84;4987475;28;20073;-80
2023/04/17 07:55:24;;;;;;;13.32;9.50;;;;;;;9.23;81.34;97124.06;5004753;28;20057;-79
2023/04/17 07:57:51;;;;;;;11.18;9.32;;;;;;;9.24;81.31;97123.06;4999157;28;20057;-80
2023/04/17 08:00:20;;;;;;;12.02;8.82;;;;;;;9.26;81.44;97127.13;4995830;28;20046;-79
2023/04/17 08:02:48;;;;;;;9.15;7.75;;;;;;;9.31;81.46;97129.25;4987123;28;20046;-78
2023/04/17 08:05:16;;;;;;;10.63;8.52;;;;;;;9.35;80.55;97129.75;4986646;28;20059;-78
2023/04/17 08:07:45;;;;;;;10.48;8.73;;;;;;;9.34;80.19;97130.75;4981339;28;20050;-79
2023/04/17 08:10:12;;;;;;;8.43;7.55;;;;;;;9.36;81.04;97134.81;4986863;28;20046;-79
2023/04/17 08:12:40;;;;;;;11.40;7.40;;;;;;;9.41;81.23;97124.72;4975838;28;20051;-78
2023/04/17 08:15:08;;;;;;;8.98;7.78;;;;;;;9.45;80.66;97135.63;4988827;28;20101;-79
2023/04/17 08:17:36;;;;;;;8.30;6.93;;;;;;;9.48;80.93;97136.09;4984988;28;20050;-79
2023/04/17 08:20:10;;;;;;;8.45;6.68;;;;;;;9.52;80.63;97135.78;4974844;28;20089;-78
2023/04/17 08:22:39;;;;;;;7.82;6.28;;;;;;;9.53;79.75;97142.63;4986511;28;20086;-78
2023/04/17 08:25:10;;;;;;;7.60;6.68;;;;;;;9.54;79.39;97150.28;4995560;28;20116;-78
2023/04/17 08:27:39;;;;;;;6.55;5.95;;;;;;;9.55;79.29;97148.47;4993653;28;20054;-79
2023/04/17 08:30:09;;;;;;;7.43;6.35;;;;;;;9.57;78.83;97151.75;4992625;28;20060;-79
2023/04/17 08:32:40;;;;;;;7.75;5.70;;;;;;;9.59;78.63;97157.59;4995001;28;20046;-79
2023/04/17 08:35:10;;;;;;;6.70;5.82;;;;;;;9.63;78.43;97151.09;5000671;28;20053;-79
2023/04/17 08:37:37;;;;;;;5.40;4.60;;;;;;;9.65;77.86;97156.97;4999349;28;20428;-79
2023/04/17 08:40:08;;;;;;;7.13;5.80;;;;;;;9.64;77.93;97155.31;5005765;28;20054;-78
2023/04/17 08:42:38;;;;;;;7.50;5.93;;;;;;;9.65;77.65;97162.19;4993976;28;20042;-78
2023/04/17 08:45:08;;;;;;;7.03;5.60;;;;;;;9.66;78.25;97159.41;4993494;28;20050;-78
2023/04/17 08:47:36;;;;;;;6.93;6.22;;;;;;;9.70;78.40;97154.69;4996424;28;20053;-80
2023/04/17 08:50:07;;;;;;;5.88;5.18;;;;;;;9.73;77.47;97162.19;5011175;28;20137;-79
2023/04/17 08:52:38;;;;;;;7.15;5.03;;;;;;;9.76;77.13;97154.03;4993401;28;20052;-78
2023/04/17 08:55:07;;;;;;;6.25;5.65;;;;;;;9.78;77.29;97152.09;4993965;28;20050;-79
2023/04/17 08:57:35;;;;;;;6.40;5.47;;;;;;;9.81;77.52;97156.97;4992197;28;20046;-79
2023/04/17 09:00:10;;;;;;;6.40;5.80;;;;;;;9.83;77.04;97155.00;4993584;28;20060;-79
2023/04/17 09:02:54;;;;;;;6.03;5.43;;;;;;;9.85;76.96;97155.66;4993547;28;20129;-79
2023/04/17 09:05:23;;;;;;;6.25;5.65;;;;;;;9.87;76.86;97156.31;5003479;28;20057;-79
2023/04/17 09:08:07;;;;;;;6.53;5.80;;;;;;;9.92;77.05;97157.63;5013495;28;20045;-79
2023/04/17 09:10:36;;;;;;;5.78;5.18;;;;;;;9.97;76.99;97155.31;4996387;28;20061;-79
2023/04/17 09:13:04;;;;;;;5.38;4.88;;;;;;;10.05;76.40;97157.94;4979603;28;20054;-80
2023/04/17 09:15:33;;;;;;;5.28;4.78;;;;;;;10.13;76.60;97157.94;4986427;28;20061;-79
2023/04/17 09:18:02;;;;;;;5.43;4.85;;;;;;;10.21;76.10;97150.09;4994604;28;20065;-80
2023/04/17 09:20:30;;;;;;;5.53;5.00;;;;;;;10.31;77.20;97148.13;4992716;28;20046;-79
2023/04/17 09:23:00;;;;;;;5.10;4.63;;;;;;;10.44;75.55;97152.03;4992772;28;20425;-79
2023/04/17 09:25:29;;;;;;;6.28;5.35;;;;;;;10.53;75.16;97145.81;4986144;28;20050;-79
2023/04/17 09:28:10;;;;;;;8.25;5.22;;;;;;;10.63;74.97;97151.66;4992544;28;20498;-79
2023/04/17 09:30:40;;;;;;;6.03;5.35;;;;;;;10.72;74.84;97155.84;4993733;28;20088;-79
2023/04/17 09:33:09;;;;;;;5.40;4.88;;;;;;;10.85;75.06;97146.69;4992066;28;20146;-79
2023/04/17 09:35:38;;;;;;;5.63;4.97;;;;;;;11.00;75.06;97147.59;4992802;28;20137;-79
2023/04/17 09:38:06;;;;;;;5.90;4.93;;;;;;;11.16;75.68;97151.09;4993764;28;20047;-79
2023/04/17 09:40:39;;;;;;;6.22;5.57;;;;;;;11.24;75.04;97148.41;4993718;28;20082;-79
2023/04/17 09:43:08;;;;;;;6.95;6.00;;;;;;;11.23;73.51;97152.03;4993489;28;20137;-79
2023/04/17 09:45:40;;;;;;;6.13;5.53;;;;;;;11.16;72.93;97153.72;4992598;28;20508;-79
2023/04/17 09:48:11;;;;;;;7.00;5.40;;;;;;;11.08;73.06;97149.31;4993341;28;20482;-80
2023/04/17 09:50:40;;;;;;;5.60;5.07;;;;;;;11.01;73.10;97149.19;4992767;28;20050;-79
2023/04/17 09:53:08;;;;;;;6.18;5.57;;;;;;;10.97;72.86;97154.94;4992422;28;20046;-79
2023/04/17 09:55:36;;;;;;;6.03;5.40;;;;;;;10.94;73.09;97150.88;4992959;28;20078;-79
2023/04/17 09:58:06;;;;;;;6.80;6.10;;;;;;;10.92;73.36;97155.44;4985648;28;20043;-78
2023/04/17 10:00:36;;;;;;;7.47;6.28;;;;;;;10.86;73.66;97156.94;4984290;28;20513;-79
2023/04/17 10:03:06;;;;;;;7.22;6.05;;;;;;;10.83;73.94;97156.47;4992052;28;20505;-79
2023/04/17 10:05:35;;;;;;;8.65;6.43;;;;;;;10.80;73.88;97162.00;4991585;28;20050;-79
2023/04/17 10:08:03;;;;;;;6.43;5.78;;;;;;;10.80;74.08;97156.78;4991829;28;20038;-79
2023/04/17 10:10:35;;;;;;;7.10;6.25;;;;;;;10.85;74.89;97151.91;4993440;28;20504;-80
2023/04/17 10:13:07;;;;;;;6.68;5.95;;;;;;;10.87;74.09;97150.75;4978604;28;20042;-79
2023/04/17 10:15:35;;;;;;;7.55;6.85;;;;;;;10.90;73.99;97153.00;4975046;28;20059;-79
2023/04/17 10:18:21;;;;;;;7.53;6.72;;;;;;;10.95;73.65;97149.88;4983410;28;20052;-79
2023/04/17 10:20:52;;;;;;;7.97;6.75;;;;;;;10.98;73.21;97148.75;4983135;28;20054;-79
2023/04/17 10:23:31;;;;;;;8.63;7.65;;;;;;;10.99;73.17;97151.16;4992483;28;20139;-79
2023/04/17 10:26:41;;;;;;;8.55;6.53;;;;;;;11.02;73.59;97145.63;4992852;28;20085;-78
2023/04/17 10:29:11;;;;;;;7.57;6.80;;;;;;;11.03;73.16;97142.00;4992824;28;20058;-79
2023/04/17 10:32:19;;;;;;;6.90;6.20;;;;;;;11.01;73.01;97141.38;4993139;28;20059;-79
2023/04/17 10:34:48;;;;;;;9.07;6.53;;;;;;;11.03;73.43;97143.81;4989762;28;20050;-78
2023/04/17 10:37:15;;;;;;;7.53;6.60;;;;;;;11.04;73.40;97148.88;4995895;28;20050;-79
2023/04/17 10:39:55;;;;;;;7.05;6.35;;;;;;;11.05;72.57;97145.28;4996011;28;20047;-79
2023/04/17 10:42:24;;;;;;;7.25;6.47;;;;;;;11.06;72.79;97138.25;4995491;28;20085;-80
2023/04/17 10:44:58;;;;;;;8.93;6.75;;;;;;;11.09;72.81;97141.34;4996748;28;20078;-79
2023/04/17 10:47:32;;;;;;;7.82;6.72;;;;;;;11.15;72.83;97129.41;4996725;28;20047;-80
2023/04/17 10:50:02;;;;;;;7.10;6.40;;;;;;;11.23;72.42;97125.91;4991628;28;20058;-79
2023/04/17 16:59:36;;;;;;;6.35;5.43;;;;;;;10.60;74.97;97088.56;5966661;23;20053;-75
2023/04/17 17:02:04;;;;;;;6.35;5.15;;;;;;;10.63;74.83;97083.81;5006902;28;20588;-76
2023/04/17 17:12:54;;;;;;;3.67;3.38;;;;;;;10.51;74.13;97093.00;4957226;28;20058;-77
2023/04/17 17:15:23;;;;;;;5.80;4.20;;;;;;;10.43;74.53;97111.25;4957748;28;20078;-76
2023/04/17 17:17:50;;;;;;;4.07;3.67;;;;;;;10.39;75.53;97097.78;4973118;28;20048;-76
2023/04/17 17:20:19;;;;;;;4.50;3.78;;;;;;;10.37;75.13;97096.31;4971897;28;20065;-76
2023/04/17 17:22:46;;;;;;;5.68;3.70;;;;;;;10.31;75.08;97095.97;4962475;28;20051;-77
2023/04/17 17:25:14;;;;;;;4.93;4.10;;;;;;;10.29;75.00;97097.94;4992150;28;20070;-76
2023/04/17 17:27:41;;;;;;;5.20;3.70;;;;;;;10.26;74.81;97103.47;4992717;28;20039;-77
2023/04/17 17:30:09;;;;;;;4.35;3.95;;;;;;;10.25;75.11;97101.84;4989874;28;20121;-77
2023/04/17 17:32:38;;;;;;;6.32;4.70;;;;;;;10.27;75.37;97099.88;4989217;28;20589;-77
2023/04/17 17:35:07;;;;;;;5.57;4.72;;;;;;;10.30;75.06;97102.19;4989898;28;20050;-77
2023/04/17 17:37:34;;;;;;;6.38;5.00;;;;;;;10.29;74.69;97105.75;4990564;28;20075;-77
2023/04/17 17:40:03;;;;;;;5.28;4.57;;;;;;;10.27;74.88;97105.09;4976323;28;20047;-76
2023/04/17 17:42:30;;;;;;;5.95;4.20;;;;;;;10.25;75.17;97107.03;4963334;29;20051;-77
2023/04/17 17:44:58;;;;;;;4.72;4.00;;;;;;;10.25;75.01;97108.84;4958852;28;20050;-76
2023/04/17 17:47:25;;;;;;;3.97;3.58;;;;;;;10.26;75.31;97103.47;4974343;28;20057;-75
2023/04/17 17:49:54;;;;;;;4.40;4.00;;;;;;;10.28;75.22;97100.72;4974051;28;20082;-76
2023/04/17 17:52:22;;;;;;;4.57;4.15;;;;;;;10.28;75.38;97108.53;4973473;28;20051;-76
2023/04/17 17:54:49;;;;;;;5.28;4.80;;;;;;;10.29;75.54;97103.16;4973795;28;20047;-76
2023/04/17 17:57:17;;;;;;;4.57;4.18;;;;;;;10.29;75.63;97108.38;4973245;28;20058;-76
2023/04/17 17:59:45;;;;;;;5.30;4.80;;;;;;;10.28;75.82;97111.13;4973005;28;20079;-76
2023/04/17 18:02:12;;;;;;;5.07;4.57;;;;;;;10.28;76.53;97111.94;4973397;28;20047;-76
2023/04/17 18:04:40;;;;;;;6.43;4.82;;;;;;;10.30;76.91;97115.22;4973352;28;20422;-76
2023/04/17 18:07:09;;;;;;;5.50;4.07;;;;;;;10.32;76.19;97115.06;4973357;28;20400;-75
2023/04/17 18:09:37;;;;;;;4.10;3.72;;;;;;;10.29;74.74;97108.38;4971287;28;20130;-76
2023/04/17 18:12:05;;;;;;;4.00;2.83;;;;;;;10.25;73.77;97114.88;4957824;28;20058;-76
2023/04/17 18:14:33;;;;;;;3.42;3.05;;;;;;;10.20;73.15;97124.19;4973165;28;20050;-76
2023/04/17 18:17:00;;;;;;;4.60;2.50;;;;;;;10.14;73.06;97127.44;4973194;28;20515;-76
2023/04/17 18:19:28;;;;;;;3.13;2.80;;;;;;;10.11;73.25;97131.22;4973129;28;20047;-76
2023/04/17 18:21:56;;;;;;;2.67;2.00;;;;;;;10.10;72.76;97126.97;4973250;28;20047;-76
2023/04/17 18:24:25;;;;;;;4.07;3.67;;;;;;;10.10;72.28;97129.56;4959763;28;20525;-77
2023/04/17 18:26:52;;;;;;;3.15;2.85;;;;;;;10.07;72.02;97129.91;4958703;28;20525;-76
2023/04/17 18:29:20;;;;;;;3.35;2.90;;;;;;;10.01;72.12;97126.16;4960128;28;20050;-75
2023/04/17 18:31:49;;;;;;;2.63;2.42;;;;;;;9.96;72.10;97128.44;4959100;28;20058;-76
2023/04/17 18:34:17;;;;;;;3.10;2.80;;;;;;;9.94;72.31;97132.22;4971285;28;20065;-74
2023/04/17 18:36:45;;;;;;;4.28;2.78;;;;;;;9.89;72.20;97133.50;4973718;28;20054;-75
2023/04/17 18:39:13;;;;;;;3.00;2.60;;;;;;;9.86;72.25;97133.84;4966718;28;20047;-75
2023/04/17 18:41:42;;;;;;;5.32;4.43;;;;;;;9.82;72.42;97139.56;4957149;28;20487;-75
2023/04/17 18:44:09;;;;;;;3.83;3.53;;;;;;;9.78;72.23;97141.66;4935126;29;20067;-75
2023/04/17 18:46:37;;;;;;;3.40;3.10;;;;;;;9.76;72.96;97138.41;4960111;28;20502;-75
2023/04/17 18:49:05;;;;;;;3.95;3.65;;;;;;;9.74;72.77;97144.75;4970188;28;20054;-74
2023/04/17 18:51:32;;;;;;;4.25;3.85;;;;;;;9.71;72.95;97140.69;4953835;29;20070;-75
2023/04/17 18:54:01;;;;;;;7.07;4.45;;;;;;;9.69;72.80;97147.84;4968893;28;20114;-75
2023/04/17 18:56:29;;;;;;;5.93;4.10;;;;;;;9.67;72.75;97149.81;4974826;28;20050;-74
2023/04/17 18:58:58;;;;;;;4.30;3.90;;;;;;;9.64;72.56;97156.16;4975378;28;20055;-74
2023/04/17 19:01:25;;;;;;;4.53;4.05;;;;;;;9.64;72.52;97158.75;4967504;28;20050;-74
2023/04/17 19:03:53;;;;;;;4.68;4.28;;;;;;;9.62;72.65;97162.47;4976487;28;20051;-74
2023/04/17 19:06:20;;;;;;;4.90;3.92;;;;;;;9.59;73.02;97158.41;4960669;28;20055;-75
2023/04/17 19:08:48;;;;;;;5.07;4.53;;;;;;;9.60;73.76;97164.44;4972787;28;20065;-74
2023/04/17 19:11:15;;;;;;;27.75;17.42;;;;;;;9.67;75.47;97173.25;4960573;28;20408;-75
2023/04/17 19:13:43;;;;;;;7.15;5.85;;;;;;;9.70;74.23;97163.31;4971894;28;20063;-74
2023/04/17 19:16:12;;;;;;;7.80;4.55;;;;;;;9.67;72.78;97165.44;4966841;28;20474;-74
2023/04/17 19:18:40;;;;;;;5.22;4.72;;;;;;;9.62;72.50;97162.47;4956525;28;20055;-75
2023/04/17 19:21:07;;;;;;;4.70;4.30;;;;;;;9.57;72.25;97165.56;4956181;28;20051;-75
2023/04/17 19:23:36;;;;;;;4.70;4.30;;;;;;;9.55;72.38;97161.50;4958545;28;20055;-75
2023/04/17 19:26:03;;;;;;;5.32;4.82;;;;;;;9.51;72.33;97160.19;4957369;28;20061;-74
2023/04/17 19:28:31;;;;;;;5.30;4.78;;;;;;;9.45;72.46;97157.28;4956276;28;20047;-74
2023/04/17 19:30:59;;;;;;;5.60;4.93;;;;;;;9.41;72.79;97161.16;4971045;28;20043;-74
2023/04/17 19:33:28;;;;;;;6.15;5.03;;;;;;;9.39;73.05;97157.09;4964320;28;20069;-74
2023/04/17 19:35:57;;;;;;;7.63;5.70;;;;;;;9.37;72.89;97157.25;4960621;28;20054;-74
2023/04/17 19:38:26;;;;;;;7.78;6.97;;;;;;;9.34;72.89;97156.78;4968970;28;20082;-74
2023/04/17 19:41:13;;;;;;;9.65;7.72;;;;;;;9.33;73.29;97163.75;4956073;29;20057;-74
2023/04/17 19:43:41;;;;;;;12.63;9.15;;;;;;;9.28;72.79;97159.03;4954362;28;20522;-74
2023/04/17 19:46:08;;;;;;;9.95;8.57;;;;;;;9.23;72.76;97157.88;4956302;28;20047;-74
2023/04/17 19:48:38;;;;;;;10.15;9.00;;;;;;;9.17;73.04;97164.53;4956961;28;20051;-75
2023/04/17 19:51:06;;;;;;;11.82;9.18;;;;;;;9.14;73.11;97170.06;4961527;28;20047;-74
2023/04/17 19:53:34;;;;;;;14.48;10.18;;;;;;;9.11;73.19;97169.56;4971817;28;20047;-74
2023/04/17 19:56:03;;;;;;;12.43;9.93;;;;;;;9.10;73.41;97165.34;4971658;28;20403;-75
2023/04/17 19:58:34;;;;;;;10.70;9.23;;;;;;;9.07;73.54;97162.09;4974255;28;20055;-74
2023/04/17 20:01:02;;;;;;;13.80;10.27;;;;;;;9.06;73.74;97160.44;4967314;28;20047;-74
2023/04/17 20:03:30;;;;;;;11.73;9.98;;;;;;;9.05;73.79;97161.41;4983361;28;20046;-75
2023/04/17 20:05:59;;;;;;;14.23;10.50;;;;;;;9.06;74.04;97152.63;4981083;28;20053;-74
2023/04/17 20:08:27;;;;;;;12.52;10.20;;;;;;;9.10;74.22;97152.31;4988951;28;20054;-74
2023/04/17 20:10:55;;;;;;;13.25;10.52;;;;;;;9.10;73.91;97149.72;4975723;28;20510;-74
2023/04/17 20:13:22;;;;;;;11.55;9.80;;;;;;;9.11;74.13;97148.75;4988179;28;20063;-75
2023/04/17 20:15:50;;;;;;;13.70;10.63;;;;;;;9.10;73.99;97147.94;4992739;28;20129;-74
2023/04/17 20:18:17;;;;;;;13.77;10.38;;;;;;;9.10;73.89;97147.13;4975491;28;20064;-75
2023/04/17 20:20:45;;;;;;;13.45;11.15;;;;;;;9.07;74.17;97146.47;4982477;28;20445;-74
2023/04/17 20:23:14;;;;;;;14.10;11.27;;;;;;;9.11;76.65;97148.75;4994277;28;20085;-75
2023/04/17 20:25:41;;;;;;;12.00;10.38;;;;;;;9.18;76.21;97147.13;4987323;28;20055;-75
2023/04/17 20:28:09;;;;;;;11.30;9.80;;;;;;;9.20;76.33;97143.38;4975180;28;20051;-75
2023/04/17 20:30:37;;;;;;;13.52;10.85;;;;;;;9.25;77.16;97145.53;4978903;28;20042;-75
2023/04/17 20:33:04;;;;;;;14.68;11.75;;;;;;;9.27;76.34;97144.38;4996568;28;20050;-76
2023/04/17 20:35:32;;;;;;;14.88;10.98;;;;;;;9.30;76.70;97140.66;5000162;28;20117;-75
2023/04/17 20:37:59;;;;;;;14.75;11.65;;;;;;;9.27;75.06;97140.94;4990203;28;20061;-77
2023/04/17 20:40:29;;;;;;;15.20;10.63;;;;;;;9.22;74.55;97148.44;4997759;28;20073;-75
2023/04/17 20:42:56;;;;;;;12.77;10.65;;;;;;;9.18;74.20;97136.72;4982005;28;20057;-75
2023/04/17 20:45:24;;;;;;;13.55;11.23;;;;;;;9.12;73.66;97142.53;4978627;28;20135;-75
2023/04/17 20:47:51;;;;;;;12.95;10.77;;;;;;;9.04;73.45;97144.16;4974877;28;20430;-76
2023/04/17 20:50:24;;;;;;;15.15;10.05;;;;;;;8.99;73.72;97141.22;4984381;28;20051;-75
2023/04/17 20:52:51;;;;;;;15.63;11.18;;;;;;;8.99;75.20;97136.03;4973978;28;20442;-76
2023/04/17 20:55:19;;;;;;;14.82;11.13;;;;;;;9.06;76.72;97139.63;4983724;28;20050;-76
2023/04/17 20:57:48;;;;;;;13.60;11.73;;;;;;;9.14;77.84;97135.41;4990341;28;20051;-75
2023/04/17 21:00:16;;;;;;;14.82;12.00;;;;;;;9.15;76.04;97139.63;4975556;28;20049;-76
2023/04/17 21:02:44;;;;;;;13.73;11.45;;;;;;;9.11;74.83;97138.31;4985186;28;20058;-75
2023/04/17 21:05:12;;;;;;;15.63;11.00;;;;;;;9.10;76.00;97132.31;4978227;28;20058;-75
2023/04/17 21:07:39;;;;;;;15.98;12.13;;;;;;;9.12;75.62;97127.75;4974180;28;20053;-76
2023/04/17 21:10:08;;;;;;;14.90;11.70;;;;;;;9.16;75.91;97136.06;4978419;28;20422;-75
2023/04/17 21:12:35;;;;;;;14.52;12.02;;;;;;;9.15;75.14;97129.22;4974314;28;20047;-75
2023/04/17 21:15:05;;;;;;;16.02;11.70;;;;;;;9.16;76.06;97136.88;4974859;28;20047;-75
2023/04/17 21:17:33;;;;;;;14.77;12.43;;;;;;;9.16;75.35;97134.28;4973069;28;20057;-75
2023/04/17 21:20:00;;;;;;;14.02;11.88;;;;;;;9.17;76.50;97122.88;4979632;28;20042;-75
2023/04/17 21:22:28;;;;;;;17.40;13.55;;;;;;;9.19;75.87;97122.72;4984430;28;20400;-75
2023/04/17 21:24:55;;;;;;;15.45;12.32;;;;;;;9.20;76.44;97127.75;4973864;28;20055;-75
2023/04/17 21:27:23;;;;;;;16.15;13.60;;;;;;;9.21;77.05;97124.19;4962935;28;20053;-75
2023/04/17 21:29:50;;;;;;;19.55;14.48;;;;;;;9.21;76.23;97123.41;4959768;29;20051;-76
2023/04/17 21:32:19;;;;;;;18.08;14.43;;;;;;;9.18;75.20;97126.28;4954573;28;20055;-75
2023/04/17 21:34:47;;;;;;;19.15;13.77;;;;;;;9.13;75.12;97121.56;4954586;28;20062;-75
2023/04/17 21:37:15;;;;;;;18.50;14.88;;;;;;;9.12;75.43;97127.75;4954649;29;20051;-75
2023/04/17 21:39:42;;;;;;;20.95;14.32;;;;;;;9.15;76.07;97126.63;4954564;28;20043;-75
2023/04/17 21:42:10;;;;;;;22.17;14.57;;;;;;;9.11;75.04;97125.31;4954135;28;20058;-76
2023/04/17 21:44:37;;;;;;;17.52;14.13;;;;;;;9.11;76.61;97126.13;4954076;28;20057;-75
2023/04/17 21:47:05;;;;;;;21.85;16.13;;;;;;;9.12;75.90;97130.38;4952914;29;20534;-76
2023/04/17 21:49:34;;;;;;;17.42;13.70;;;;;;;9.13;77.18;97133.78;4958787;28;20050;-75
2023/04/17 21:52:01;;;;;;;19.55;15.10;;;;;;;9.12;75.95;97124.31;4972493;28;20059;-75
2023/04/17 21:54:29;;;;;;;18.75;14.25;;;;;;;9.08;75.65;97122.06;4970837;28;20055;-75
2023/04/17 21:56:56;;;;;;;17.40;13.43;;;;;;;9.11;76.94;97127.91;4971276;28;20297;-76
2023/04/17 21:59:24;;;;;;;25.73;16.67;;;;;;;9.12;76.54;97119.13;4971452;28;20058;-76
2023/04/17 22:01:51;;;;;;;28.00;18.33;;;;;;;9.10;75.50;97110.69;4971439;28;20051;-75
2023/04/17 22:04:19;;;;;;;24.40;16.45;;;;;;;9.08;75.86;97114.25;4971482;28;20078;-75
2023/04/17 22:06:50;;;;;;;17.77;14.63;;;;;;;9.11;77.68;97118.31;4972125;28;20129;-75
2023/04/17 22:09:19;;;;;;;22.23;16.63;;;;;;;9.17;78.28;97119.47;4973662;28;20533;-76
2023/04/17 22:11:47;;;;;;;18.63;14.65;;;;;;;9.18;76.39;97119.31;4973029;28;20043;-75